Sign in

Goboko Update

Goboko is set to continue

The Goboko booking system is to continue under a new operator, a member of one of our longest-subscribed flying clubs

The new and previous operators of the site are working to ensure there will be no interruption to your booking service as the transition takes place. Of course, aircraft booking will continue to be free

Thank you for your continued commitment to Goboko

Info

Aviation weather

METAR KDAB 232353Z VRB04KT 9SM TS FEW050CB SCT080 BKN100 22/21 A2994 RMK AO2 TSB40 SLP138 OCNL LTGICCG SE-SW TS SE-SW MOV E 60018 T02170211 10283 20206 53002 $

TAF KDAB 232359Z 2400/2424 18006KT P6SM VCSH FEW050 SCT080 BKN100 TEMPO 2400/2402 4SM -TSRA BKN040CB OVC050 FM240800 24004KT P6SM BKN008 FM241400 25008KT P6SM BKN025 FM241800 25011KT P6SM SCT050

Aviation weather from ADDS. Re-check weather before flight.

-